Accueil
METAR-TAF:

METAR-TAF

Aéroports :

Altenstadt, Allemagne

latitude: 47-50N, longitude: 010-52E, altitude: 739 m

Observation

Le bulletin a été fait il y a 50 minutes, à 19:20 UTC
Vent 2 kt de ouest/sud-ouest
Température 18°C
Humidité 94%
Pression 1022 hPa
Visibilité 10 km ou plus

METAR: ETHA 221920Z AUTO 25002KT 9999 // ////// 18/17 Q1022 ///

Heure: 22:10 (20:10 UTC)

Prévision

Le bulletin a été fait il y a 7 heures et 0 minutes, à 13:10 UTC
Prévision valable du 22 à 14 UTC au 22 à 23 UTC
Vent 7 kt de ouest
Visibilité 10 km ou plus
Nuages épars à une hauteur de 2000 ft
Nuages épars à une hauteur de 5000 ft
Temporairement
du 22 à 14 UTC au 22 à 23 UTC
Vent 10 kt de nord-ouest
Visibilité: 2000 m
Nuages épars à une hauteur de 1000 ft
Nuages fragmentés à une hauteur de 1500 ft, Cumulonimbus.
fortes averses de pluie,

TAF: ETHA 221310Z 2214/2223 28007KT 9999 NSW SCT020 SCT050 TEMPO 2214/2223 31010KT 2000 +SHRA SCT010 BKN015CB

Observations et prévisions météorologiques de plus de 4000 aéroports (messages METAR et TAF).

Les stations disponibles sont représentées par des disques jaunes et rouges sur la carte.

Passer la souris dessus pour voir le nom de la station.

Cliquer dessus pour voir les observations et prévisions météorologiques.

Pour changer de carte: cliquez sur les boutons verts avec une croix noire pour zoomer, sur le bouton vert avec un tiret pour effectuer un zoom arrière, ou sur les flèches vertes pour les cartes adjacentes.


METAR-TAF: